LEAS/OVD METAR and TAF weather

Enter ICAO airport designator
Station Type Date Time Source
LEAS METAR 2019/04/25 09:30 UTC NOAA

LEAS 250930Z 25018G28KT 220V280 9999 FEW085 14/03 Q1003 NOSIG


Station Type Date Time Source
LEAS Decoded METAR 2019/04/25 09:30 UTC NOAA

Asturias / Aviles, Spain (LEAS) 43-33N 006-02W 130M
Apr 25, 2019 - 05:30 AM EDT / 2019.04.25 0930 UTC
Wind: from the WSW (250 degrees) at 21 MPH (18 KT) gusting to 32 MPH (28 KT) (direction variable):0
Visibility: greater than 7 mile(s):0
Sky conditions: mostly clear
Temperature: 57 F (14 C)
Dew Point: 37 F (3 C)
Relative Humidity: 47%
Pressure (altimeter): 29.62 in. Hg (1003 hPa)
ob: LEAS 250930Z 25018G28KT 220V280 9999 FEW085 14/03 Q1003 NOSIG
cycle: 9

Station Type Date Time Source
LEAS TAF 2019/04/25 09:27 UTC NOAA

TAF LEAS 250800Z 2509/2609 24012KT 9999 SCT040 TX16/2514Z TN08/2606Z
TEMPO 2510/2606 25015G25KT SCT030TCU PROB40
TEMPO 2511/2524 24018G33KT SHRA SCT025TCU SCT030CB PROB30
TEMPO 2515/2521 25025G43KT 3000 TSRAGS BKN030CB PROB30
TEMPO 2521/2605 SHRA TS BKN025CB

Example: see airport list